sensor_id;sensor_type;location;lat;lon;timestamp;temperature;humidity
4749;DHT22;2388;53.582;9.962;2022-08-02T00:02:09;15.30;99.90
4749;DHT22;2388;53.582;9.962;2022-08-02T00:04:35;15.30;99.90
4749;DHT22;2388;53.582;9.962;2022-08-02T00:07:00;15.30;99.90
4749;DHT22;2388;53.582;9.962;2022-08-02T00:09:26;15.30;99.90
4749;DHT22;2388;53.582;9.962;2022-08-02T00:11:51;15.20;99.90
4749;DHT22;2388;53.582;9.962;2022-08-02T00:14:17;15.20;99.90
4749;DHT22;2388;53.582;9.962;2022-08-02T00:16:42;15.20;99.90
4749;DHT22;2388;53.582;9.962;2022-08-02T00:19:08;15.20;99.90
4749;DHT22;2388;53.582;9.962;2022-08-02T00:21:33;15.20;99.90
4749;DHT22;2388;53.582;9.962;2022-08-02T00:23:59;15.10;99.90
4749;DHT22;2388;53.582;9.962;2022-08-02T00:26:24;15.20;99.90
4749;DHT22;2388;53.582;9.962;2022-08-02T00:28:50;15.10;99.90
4749;DHT22;2388;53.582;9.962;2022-08-02T00:31:15;15.10;99.90
4749;DHT22;2388;53.582;9.962;2022-08-02T00:33:41;15.00;99.90
4749;DHT22;2388;53.582;9.962;2022-08-02T00:36:06;15.10;99.90
4749;DHT22;2388;53.582;9.962;2022-08-02T00:38:32;15.10;99.90
4749;DHT22;2388;53.582;9.962;2022-08-02T00:40:57;15.10;99.90
4749;DHT22;2388;53.582;9.962;2022-08-02T00:43:23;15.00;99.90
4749;DHT22;2388;53.582;9.962;2022-08-02T00:45:48;15.00;99.90
4749;DHT22;2388;53.582;9.962;2022-08-02T00:48:14;15.00;99.90
4749;DHT22;2388;53.582;9.962;2022-08-02T00:50:40;14.90;99.90
4749;DHT22;2388;53.582;9.962;2022-08-02T00:53:06;14.90;99.90
4749;DHT22;2388;53.582;9.962;2022-08-02T00:55:36;14.80;99.90
4749;DHT22;2388;53.582;9.962;2022-08-02T00:58:02;14.80;99.90
4749;DHT22;2388;53.582;9.962;2022-08-02T01:00:28;14.90;99.90
4749;DHT22;2388;53.582;9.962;2022-08-02T01:02:53;14.80;99.90
4749;DHT22;2388;53.582;9.962;2022-08-02T01:05:18;14.80;99.90
4749;DHT22;2388;53.582;9.962;2022-08-02T01:07:44;14.90;99.90
4749;DHT22;2388;53.582;9.962;2022-08-02T01:10:10;14.90;99.90
4749;DHT22;2388;53.582;9.962;2022-08-02T01:12:35;14.80;99.90
4749;DHT22;2388;53.582;9.962;2022-08-02T01:15:05;14.90;99.90
4749;DHT22;2388;53.582;9.962;2022-08-02T01:17:56;14.90;99.90
4749;DHT22;2388;53.582;9.962;2022-08-02T01:26:56;14.80;99.90
4749;DHT22;2388;53.582;9.962;2022-08-02T01:29:37;14.80;99.90
4749;DHT22;2388;53.582;9.962;2022-08-02T01:32:13;14.90;99.90
4749;DHT22;2388;53.582;9.962;2022-08-02T01:34:45;14.80;99.90
4749;DHT22;2388;53.582;9.962;2022-08-02T01:37:21;14.80;99.90
4749;DHT22;2388;53.582;9.962;2022-08-02T01:39:57;14.70;99.90
4749;DHT22;2388;53.582;9.962;2022-08-02T01:42:25;14.70;99.90
4749;DHT22;2388;53.582;9.962;2022-08-02T01:44:52;14.70;99.90
4749;DHT22;2388;53.582;9.962;2022-08-02T01:47:23;14.70;99.90
4749;DHT22;2388;53.582;9.962;2022-08-02T01:49:52;14.70;99.90
4749;DHT22;2388;53.582;9.962;2022-08-02T01:52:20;14.70;99.90
4749;DHT22;2388;53.582;9.962;2022-08-02T01:55:06;14.70;99.90
4749;DHT22;2388;53.582;9.962;2022-08-02T01:57:48;14.70;99.90
4749;DHT22;2388;53.582;9.962;2022-08-02T02:00:14;14.70;99.90
4749;DHT22;2388;53.582;9.962;2022-08-02T02:02:42;14.60;99.90
4749;DHT22;2388;53.582;9.962;2022-08-02T02:05:14;14.60;99.90
4749;DHT22;2388;53.582;9.962;2022-08-02T02:07:42;14.60;99.90
4749;DHT22;2388;53.582;9.962;2022-08-02T02:10:11;14.60;99.90
4749;DHT22;2388;53.582;9.962;2022-08-02T02:12:39;14.60;99.90
4749;DHT22;2388;53.582;9.962;2022-08-02T02:15:08;14.60;99.90
4749;DHT22;2388;53.582;9.962;2022-08-02T02:17:35;14.50;99.90
4749;DHT22;2388;53.582;9.962;2022-08-02T02:20:02;14.50;99.90
4749;DHT22;2388;53.582;9.962;2022-08-02T02:22:28;14.50;99.90
4749;DHT22;2388;53.582;9.962;2022-08-02T02:24:53;14.50;99.90
4749;DHT22;2388;53.582;9.962;2022-08-02T02:27:19;14.50;99.90
4749;DHT22;2388;53.582;9.962;2022-08-02T02:29:50;14.40;99.90
4749;DHT22;2388;53.582;9.962;2022-08-02T02:32:17;14.40;99.90
4749;DHT22;2388;53.582;9.962;2022-08-02T02:34:45;14.40;99.90
4749;DHT22;2388;53.582;9.962;2022-08-02T02:37:16;14.30;99.90
4749;DHT22;2388;53.582;9.962;2022-08-02T02:39:44;14.30;99.90
4749;DHT22;2388;53.582;9.962;2022-08-02T02:42:14;14.30;99.90
4749;DHT22;2388;53.582;9.962;2022-08-02T02:44:40;14.20;99.90
4749;DHT22;2388;53.582;9.962;2022-08-02T02:47:08;14.20;99.90
4749;DHT22;2388;53.582;9.962;2022-08-02T02:49:34;14.30;99.90
4749;DHT22;2388;53.582;9.962;2022-08-02T02:52:02;14.20;99.90
4749;DHT22;2388;53.582;9.962;2022-08-02T02:54:29;14.10;99.90
4749;DHT22;2388;53.582;9.962;2022-08-02T02:56:57;14.10;99.90
4749;DHT22;2388;53.582;9.962;2022-08-02T02:59:24;14.20;99.90
4749;DHT22;2388;53.582;9.962;2022-08-02T03:01:50;14.20;99.90
4749;DHT22;2388;53.582;9.962;2022-08-02T03:04:16;14.20;99.90
4749;DHT22;2388;53.582;9.962;2022-08-02T03:06:42;14.10;99.90
4749;DHT22;2388;53.582;9.962;2022-08-02T03:09:08;14.20;99.90
4749;DHT22;2388;53.582;9.962;2022-08-02T03:11:35;14.20;99.90
4749;DHT22;2388;53.582;9.962;2022-08-02T03:14:02;14.20;99.90
4749;DHT22;2388;53.582;9.962;2022-08-02T03:16:28;14.20;99.90
4749;DHT22;2388;53.582;9.962;2022-08-02T03:18:55;14.20;99.90
4749;DHT22;2388;53.582;9.962;2022-08-02T03:21:21;14.20;99.90
4749;DHT22;2388;53.582;9.962;2022-08-02T03:23:47;14.10;99.90
4749;DHT22;2388;53.582;9.962;2022-08-02T03:26:12;14.20;99.90
4749;DHT22;2388;53.582;9.962;2022-08-02T03:28:39;14.20;99.90
4749;DHT22;2388;53.582;9.962;2022-08-02T03:31:04;14.10;99.90
4749;DHT22;2388;53.582;9.962;2022-08-02T03:33:30;14.10;99.90
4749;DHT22;2388;53.582;9.962;2022-08-02T03:35:58;14.10;99.90
4749;DHT22;2388;53.582;9.962;2022-08-02T03:38:25;14.10;99.90
4749;DHT22;2388;53.582;9.962;2022-08-02T03:40:52;14.10;99.90
4749;DHT22;2388;53.582;9.962;2022-08-02T03:43:19;14.10;99.90
4749;DHT22;2388;53.582;9.962;2022-08-02T03:45:47;14.10;99.90
4749;DHT22;2388;53.582;9.962;2022-08-02T03:48:14;14.10;99.90
4749;DHT22;2388;53.582;9.962;2022-08-02T03:50:41;14.10;99.90
4749;DHT22;2388;53.582;9.962;2022-08-02T03:53:07;14.10;99.90
4749;DHT22;2388;53.582;9.962;2022-08-02T03:55:36;14.10;99.90
4749;DHT22;2388;53.582;9.962;2022-08-02T03:58:03;14.00;99.90
4749;DHT22;2388;53.582;9.962;2022-08-02T04:00:29;14.00;99.90
4749;DHT22;2388;53.582;9.962;2022-08-02T04:02:54;13.90;99.90
4749;DHT22;2388;53.582;9.962;2022-08-02T04:05:20;13.90;99.90
4749;DHT22;2388;53.582;9.962;2022-08-02T04:07:45;13.90;99.90
4749;DHT22;2388;53.582;9.962;2022-08-02T04:10:13;14.00;99.90
4749;DHT22;2388;53.582;9.962;2022-08-02T04:12:39;14.00;99.90
4749;DHT22;2388;53.582;9.962;2022-08-02T04:15:05;14.00;99.90
4749;DHT22;2388;53.582;9.962;2022-08-02T04:17:35;14.00;99.90
4749;DHT22;2388;53.582;9.962;2022-08-02T04:20:06;14.00;99.90
4749;DHT22;2388;53.582;9.962;2022-08-02T04:22:38;14.10;99.90
4749;DHT22;2388;53.582;9.962;2022-08-02T04:25:06;14.10;99.90
4749;DHT22;2388;53.582;9.962;2022-08-02T04:27:34;14.10;99.90
4749;DHT22;2388;53.582;9.962;2022-08-02T04:30:02;14.20;99.90
4749;DHT22;2388;53.582;9.962;2022-08-02T04:32:29;14.10;99.90
4749;DHT22;2388;53.582;9.962;2022-08-02T04:34:56;14.10;99.90
4749;DHT22;2388;53.582;9.962;2022-08-02T04:37:21;14.20;99.90
4749;DHT22;2388;53.582;9.962;2022-08-02T04:39:47;14.40;99.90
4749;DHT22;2388;53.582;9.962;2022-08-02T04:42:22;14.40;99.90
4749;DHT22;2388;53.582;9.962;2022-08-02T04:44:49;14.40;99.90
4749;DHT22;2388;53.582;9.962;2022-08-02T04:47:15;14.40;99.90
4749;DHT22;2388;53.582;9.962;2022-08-02T04:49:41;14.30;99.90
4749;DHT22;2388;53.582;9.962;2022-08-02T04:52:06;14.30;99.90
4749;DHT22;2388;53.582;9.962;2022-08-02T04:54:32;14.30;99.90
4749;DHT22;2388;53.582;9.962;2022-08-02T04:56:57;14.30;99.90
4749;DHT22;2388;53.582;9.962;2022-08-02T04:59:23;14.30;99.90
4749;DHT22;2388;53.582;9.962;2022-08-02T05:01:48;14.30;99.90
4749;DHT22;2388;53.582;9.962;2022-08-02T05:04:14;14.30;99.90
4749;DHT22;2388;53.582;9.962;2022-08-02T05:06:39;14.20;99.90
4749;DHT22;2388;53.582;9.962;2022-08-02T05:09:05;14.20;99.90
4749;DHT22;2388;53.582;9.962;2022-08-02T05:11:30;14.20;99.90
4749;DHT22;2388;53.582;9.962;2022-08-02T05:13:56;14.20;99.90
4749;DHT22;2388;53.582;9.962;2022-08-02T05:16:21;14.20;99.90
4749;DHT22;2388;53.582;9.962;2022-08-02T05:18:47;14.10;99.90
4749;DHT22;2388;53.582;9.962;2022-08-02T05:21:12;14.20;99.90
4749;DHT22;2388;53.582;9.962;2022-08-02T05:23:38;14.20;99.90
4749;DHT22;2388;53.582;9.962;2022-08-02T05:26:03;14.20;99.90
4749;DHT22;2388;53.582;9.962;2022-08-02T05:28:29;14.20;99.90
4749;DHT22;2388;53.582;9.962;2022-08-02T05:30:55;14.30;99.90
4749;DHT22;2388;53.582;9.962;2022-08-02T05:33:20;14.40;99.90
4749;DHT22;2388;53.582;9.962;2022-08-02T05:35:46;14.40;99.90
4749;DHT22;2388;53.582;9.962;2022-08-02T05:38:11;14.40;99.90
4749;DHT22;2388;53.582;9.962;2022-08-02T05:40:37;14.40;99.90
4749;DHT22;2388;53.582;9.962;2022-08-02T05:43:10;14.50;99.90
4749;DHT22;2388;53.582;9.962;2022-08-02T05:45:36;14.60;99.90
4749;DHT22;2388;53.582;9.962;2022-08-02T05:48:03;14.60;99.90
4749;DHT22;2388;53.582;9.962;2022-08-02T05:50:29;14.60;99.90
4749;DHT22;2388;53.582;9.962;2022-08-02T05:53:02;14.60;99.90
4749;DHT22;2388;53.582;9.962;2022-08-02T05:55:33;14.70;99.90
4749;DHT22;2388;53.582;9.962;2022-08-02T05:58:34;14.80;99.90
4749;DHT22;2388;53.582;9.962;2022-08-02T06:01:02;14.80;99.90
4749;DHT22;2388;53.582;9.962;2022-08-02T06:03:37;14.90;99.90
4749;DHT22;2388;53.582;9.962;2022-08-02T06:06:05;14.90;99.90
4749;DHT22;2388;53.582;9.962;2022-08-02T06:08:40;15.00;99.90
4749;DHT22;2388;53.582;9.962;2022-08-02T06:11:13;15.00;99.90
4749;DHT22;2388;53.582;9.962;2022-08-02T06:13:40;15.00;99.90
4749;DHT22;2388;53.582;9.962;2022-08-02T06:16:06;15.10;99.90
4749;DHT22;2388;53.582;9.962;2022-08-02T06:18:32;15.20;99.90
4749;DHT22;2388;53.582;9.962;2022-08-02T06:21:01;15.40;99.90
4749;DHT22;2388;53.582;9.962;2022-08-02T06:23:27;15.40;99.90
4749;DHT22;2388;53.582;9.962;2022-08-02T06:25:55;15.40;99.90
4749;DHT22;2388;53.582;9.962;2022-08-02T06:28:21;15.40;99.90
4749;DHT22;2388;53.582;9.962;2022-08-02T06:30:47;15.40;99.90
4749;DHT22;2388;53.582;9.962;2022-08-02T06:33:12;15.40;99.90
4749;DHT22;2388;53.582;9.962;2022-08-02T06:38:28;15.40;99.90
4749;DHT22;2388;53.582;9.962;2022-08-02T06:41:08;15.40;99.90
4749;DHT22;2388;53.582;9.962;2022-08-02T06:46:00;15.50;99.90
4749;DHT22;2388;53.582;9.962;2022-08-02T06:48:26;15.50;99.90
4749;DHT22;2388;53.582;9.962;2022-08-02T06:50:51;15.60;99.90
4749;DHT22;2388;53.582;9.962;2022-08-02T06:53:17;15.60;99.90
4749;DHT22;2388;53.582;9.962;2022-08-02T06:55:43;15.60;99.90
4749;DHT22;2388;53.582;9.962;2022-08-02T06:58:08;15.70;99.90
4749;DHT22;2388;53.582;9.962;2022-08-02T07:00:34;15.70;99.90
4749;DHT22;2388;53.582;9.962;2022-08-02T07:02:59;15.80;99.90
4749;DHT22;2388;53.582;9.962;2022-08-02T07:05:25;15.80;99.90
4749;DHT22;2388;53.582;9.962;2022-08-02T07:07:50;15.90;99.90
4749;DHT22;2388;53.582;9.962;2022-08-02T07:10:16;15.90;99.90
4749;DHT22;2388;53.582;9.962;2022-08-02T07:12:41;15.90;99.90
4749;DHT22;2388;53.582;9.962;2022-08-02T07:15:07;15.80;99.90
4749;DHT22;2388;53.582;9.962;2022-08-02T07:17:35;15.90;99.90
4749;DHT22;2388;53.582;9.962;2022-08-02T07:20:01;16.00;99.90
4749;DHT22;2388;53.582;9.962;2022-08-02T07:22:27;16.10;99.90
4749;DHT22;2388;53.582;9.962;2022-08-02T07:24:55;16.10;99.90
4749;DHT22;2388;53.582;9.962;2022-08-02T07:27:21;16.10;99.90
4749;DHT22;2388;53.582;9.962;2022-08-02T07:29:47;16.10;99.90
4749;DHT22;2388;53.582;9.962;2022-08-02T07:32:17;16.20;99.90
4749;DHT22;2388;53.582;9.962;2022-08-02T07:34:44;16.30;99.90
4749;DHT22;2388;53.582;9.962;2022-08-02T07:37:10;16.30;99.90
4749;DHT22;2388;53.582;9.962;2022-08-02T07:39:35;16.30;99.90
4749;DHT22;2388;53.582;9.962;2022-08-02T07:42:01;16.40;99.90
4749;DHT22;2388;53.582;9.962;2022-08-02T07:44:26;16.40;99.90
4749;DHT22;2388;53.582;9.962;2022-08-02T07:46:56;16.40;99.90
4749;DHT22;2388;53.582;9.962;2022-08-02T07:49:21;16.50;99.90
4749;DHT22;2388;53.582;9.962;2022-08-02T07:51:46;16.60;99.90
4749;DHT22;2388;53.582;9.962;2022-08-02T07:54:12;16.60;99.90
4749;DHT22;2388;53.582;9.962;2022-08-02T07:56:38;16.60;99.90
4749;DHT22;2388;53.582;9.962;2022-08-02T07:59:03;16.70;99.90
4749;DHT22;2388;53.582;9.962;2022-08-02T08:01:29;16.70;99.90
4749;DHT22;2388;53.582;9.962;2022-08-02T08:03:55;16.80;99.90
4749;DHT22;2388;53.582;9.962;2022-08-02T08:06:20;16.90;99.90
4749;DHT22;2388;53.582;9.962;2022-08-02T08:08:46;17.00;99.90
4749;DHT22;2388;53.582;9.962;2022-08-02T08:11:11;17.10;99.90
4749;DHT22;2388;53.582;9.962;2022-08-02T08:13:37;17.10;99.90
4749;DHT22;2388;53.582;9.962;2022-08-02T08:16:03;17.10;99.90
4749;DHT22;2388;53.582;9.962;2022-08-02T08:18:28;17.20;99.90
4749;DHT22;2388;53.582;9.962;2022-08-02T08:20:54;17.20;99.90
4749;DHT22;2388;53.582;9.962;2022-08-02T08:23:19;17.30;99.90
4749;DHT22;2388;53.582;9.962;2022-08-02T08:25:45;17.30;99.90
4749;DHT22;2388;53.582;9.962;2022-08-02T08:28:10;17.40;99.90
4749;DHT22;2388;53.582;9.962;2022-08-02T08:30:36;17.40;99.90
4749;DHT22;2388;53.582;9.962;2022-08-02T08:33:01;17.50;99.90
4749;DHT22;2388;53.582;9.962;2022-08-02T08:35:27;17.60;99.90
4749;DHT22;2388;53.582;9.962;2022-08-02T08:37:52;17.70;99.90
4749;DHT22;2388;53.582;9.962;2022-08-02T08:40:19;17.70;99.90
4749;DHT22;2388;53.582;9.962;2022-08-02T08:42:45;17.70;99.90
4749;DHT22;2388;53.582;9.962;2022-08-02T08:45:11;17.70;99.90
4749;DHT22;2388;53.582;9.962;2022-08-02T08:47:38;17.70;99.90
4749;DHT22;2388;53.582;9.962;2022-08-02T08:50:07;17.80;99.90
4749;DHT22;2388;53.582;9.962;2022-08-02T08:52:41;17.80;99.90
4749;DHT22;2388;53.582;9.962;2022-08-02T08:55:09;17.80;99.90
4749;DHT22;2388;53.582;9.962;2022-08-02T08:57:41;17.90;99.90
4749;DHT22;2388;53.582;9.962;2022-08-02T09:00:10;17.90;99.90
4749;DHT22;2388;53.582;9.962;2022-08-02T09:02:39;18.00;99.90
4749;DHT22;2388;53.582;9.962;2022-08-02T09:05:08;18.10;99.90
4749;DHT22;2388;53.582;9.962;2022-08-02T09:07:34;18.20;99.90
4749;DHT22;2388;53.582;9.962;2022-08-02T09:09:59;18.20;99.90
4749;DHT22;2388;53.582;9.962;2022-08-02T09:12:25;18.20;99.90
4749;DHT22;2388;53.582;9.962;2022-08-02T09:14:51;18.30;99.90
4749;DHT22;2388;53.582;9.962;2022-08-02T09:17:17;18.30;99.90
4749;DHT22;2388;53.582;9.962;2022-08-02T09:19:42;18.30;99.90
4749;DHT22;2388;53.582;9.962;2022-08-02T09:22:10;18.30;99.90
4749;DHT22;2388;53.582;9.962;2022-08-02T09:24:46;18.30;99.90
4749;DHT22;2388;53.582;9.962;2022-08-02T09:27:14;18.40;99.90
4749;DHT22;2388;53.582;9.962;2022-08-02T09:29:44;18.40;99.90
4749;DHT22;2388;53.582;9.962;2022-08-02T09:32:10;18.50;99.90
4749;DHT22;2388;53.582;9.962;2022-08-02T09:34:46;18.50;99.90
4749;DHT22;2388;53.582;9.962;2022-08-02T09:39:47;18.70;99.60
4749;DHT22;2388;53.582;9.962;2022-08-02T09:42:12;18.80;99.50
4749;DHT22;2388;53.582;9.962;2022-08-02T09:44:39;18.80;99.60
4749;DHT22;2388;53.582;9.962;2022-08-02T09:47:13;18.90;99.40
4749;DHT22;2388;53.582;9.962;2022-08-02T09:49:45;19.00;99.30
4749;DHT22;2388;53.582;9.962;2022-08-02T09:52:11;19.10;99.20
4749;DHT22;2388;53.582;9.962;2022-08-02T09:54:38;19.10;98.60
4749;DHT22;2388;53.582;9.962;2022-08-02T09:57:04;19.10;98.80
4749;DHT22;2388;53.582;9.962;2022-08-02T09:59:30;19.20;99.30
4749;DHT22;2388;53.582;9.962;2022-08-02T10:01:57;19.20;98.10
4749;DHT22;2388;53.582;9.962;2022-08-02T10:04:24;19.30;99.10
4749;DHT22;2388;53.582;9.962;2022-08-02T10:06:51;19.30;98.00
4749;DHT22;2388;53.582;9.962;2022-08-02T10:09:19;19.40;97.10
4749;DHT22;2388;53.582;9.962;2022-08-02T10:11:44;19.50;96.90
4749;DHT22;2388;53.582;9.962;2022-08-02T10:14:10;19.60;96.00
4749;DHT22;2388;53.582;9.962;2022-08-02T10:16:38;19.70;95.30
4749;DHT22;2388;53.582;9.962;2022-08-02T10:19:04;19.70;94.70
4749;DHT22;2388;53.582;9.962;2022-08-02T10:26:31;19.90;94.80
4749;DHT22;2388;53.582;9.962;2022-08-02T10:28:57;19.90;95.10
4749;DHT22;2388;53.582;9.962;2022-08-02T10:31:30;20.00;93.90
4749;DHT22;2388;53.582;9.962;2022-08-02T10:33:59;20.10;91.60
4749;DHT22;2388;53.582;9.962;2022-08-02T10:36:27;20.20;90.40
4749;DHT22;2388;53.582;9.962;2022-08-02T10:38:55;20.20;91.30
4749;DHT22;2388;53.582;9.962;2022-08-02T10:41:45;20.20;92.80
4749;DHT22;2388;53.582;9.962;2022-08-02T10:44:25;20.30;92.30
4749;DHT22;2388;53.582;9.962;2022-08-02T10:52:15;18.80;90.40
4749;DHT22;2388;53.582;9.962;2022-08-02T10:54:47;20.60;91.60
4749;DHT22;2388;53.582;9.962;2022-08-02T10:57:19;20.60;91.60
4749;DHT22;2388;53.582;9.962;2022-08-02T10:59:46;20.70;91.00
4749;DHT22;2388;53.582;9.962;2022-08-02T11:02:12;20.80;91.80
4749;DHT22;2388;53.582;9.962;2022-08-02T11:07:31;20.90;90.70
4749;DHT22;2388;53.582;9.962;2022-08-02T11:09:57;21.00;91.60
4749;DHT22;2388;53.582;9.962;2022-08-02T11:12:24;21.10;91.50
4749;DHT22;2388;53.582;9.962;2022-08-02T11:15:00;21.30;90.90
4749;DHT22;2388;53.582;9.962;2022-08-02T11:17:51;21.40;89.90
4749;DHT22;2388;53.582;9.962;2022-08-02T11:20:17;21.50;86.30
4749;DHT22;2388;53.582;9.962;2022-08-02T11:22:44;21.50;88.40
4749;DHT22;2388;53.582;9.962;2022-08-02T11:27:56;21.60;87.30
4749;DHT22;2388;53.582;9.962;2022-08-02T11:30:22;21.60;88.40
4749;DHT22;2388;53.582;9.962;2022-08-02T11:32:48;21.60;87.90
4749;DHT22;2388;53.582;9.962;2022-08-02T11:35:14;21.70;85.40
4749;DHT22;2388;53.582;9.962;2022-08-02T11:37:41;21.70;83.30
4749;DHT22;2388;53.582;9.962;2022-08-02T11:40:13;21.70;83.80
4749;DHT22;2388;53.582;9.962;2022-08-02T11:42:41;21.90;84.00
4749;DHT22;2388;53.582;9.962;2022-08-02T11:45:10;21.90;83.90
4749;DHT22;2388;53.582;9.962;2022-08-02T11:47:46;21.90;82.80
4749;DHT22;2388;53.582;9.962;2022-08-02T11:50:12;22.10;82.80
4749;DHT22;2388;53.582;9.962;2022-08-02T11:52:38;22.20;82.30
4749;DHT22;2388;53.582;9.962;2022-08-02T11:55:06;22.30;82.70
4749;DHT22;2388;53.582;9.962;2022-08-02T11:57:32;22.30;81.50
4749;DHT22;2388;53.582;9.962;2022-08-02T11:59:58;22.40;81.00
4749;DHT22;2388;53.582;9.962;2022-08-02T12:02:25;22.40;81.50
4749;DHT22;2388;53.582;9.962;2022-08-02T12:04:53;22.30;81.30
4749;DHT22;2388;53.582;9.962;2022-08-02T12:07:25;22.40;82.30
4749;DHT22;2388;53.582;9.962;2022-08-02T12:09:51;22.40;82.60
4749;DHT22;2388;53.582;9.962;2022-08-02T12:12:17;22.50;81.90
4749;DHT22;2388;53.582;9.962;2022-08-02T12:14:43;22.60;81.30
4749;DHT22;2388;53.582;9.962;2022-08-02T12:17:09;22.70;80.40
4749;DHT22;2388;53.582;9.962;2022-08-02T12:19:53;22.80;80.80
4749;DHT22;2388;53.582;9.962;2022-08-02T12:22:22;22.90;81.10
4749;DHT22;2388;53.582;9.962;2022-08-02T12:24:50;23.00;81.40
4749;DHT22;2388;53.582;9.962;2022-08-02T12:27:38;22.90;82.50
4749;DHT22;2388;53.582;9.962;2022-08-02T12:30:17;23.10;82.80
4749;DHT22;2388;53.582;9.962;2022-08-02T12:32:44;23.50;79.50
4749;DHT22;2388;53.582;9.962;2022-08-02T12:35:16;23.50;80.10
4749;DHT22;2388;53.582;9.962;2022-08-02T12:37:45;23.70;78.30
4749;DHT22;2388;53.582;9.962;2022-08-02T12:42:54;24.10;76.60
4749;DHT22;2388;53.582;9.962;2022-08-02T12:45:20;24.20;74.90
4749;DHT22;2388;53.582;9.962;2022-08-02T12:47:51;24.10;74.60
4749;DHT22;2388;53.582;9.962;2022-08-02T12:50:28;24.00;75.40
4749;DHT22;2388;53.582;9.962;2022-08-02T12:53:12;24.10;76.40
4749;DHT22;2388;53.582;9.962;2022-08-02T12:55:53;23.80;79.00
4749;DHT22;2388;53.582;9.962;2022-08-02T12:58:18;24.10;78.00
4749;DHT22;2388;53.582;9.962;2022-08-02T13:00:52;24.30;75.30
4749;DHT22;2388;53.582;9.962;2022-08-02T13:03:18;23.90;77.80
4749;DHT22;2388;53.582;9.962;2022-08-02T13:05:44;23.90;76.80
4749;DHT22;2388;53.582;9.962;2022-08-02T13:08:10;23.90;74.50
4749;DHT22;2388;53.582;9.962;2022-08-02T13:10:35;24.00;71.50
4749;DHT22;2388;53.582;9.962;2022-08-02T13:13:01;24.10;70.30
4749;DHT22;2388;53.582;9.962;2022-08-02T13:15:27;24.30;70.90
4749;DHT22;2388;53.582;9.962;2022-08-02T13:17:53;24.30;70.60
4749;DHT22;2388;53.582;9.962;2022-08-02T13:20:18;24.20;70.80
4749;DHT22;2388;53.582;9.962;2022-08-02T13:22:44;24.20;70.90
4749;DHT22;2388;53.582;9.962;2022-08-02T13:25:09;24.10;73.10
4749;DHT22;2388;53.582;9.962;2022-08-02T13:27:35;24.00;72.30
4749;DHT22;2388;53.582;9.962;2022-08-02T13:30:03;24.20;71.80
4749;DHT22;2388;53.582;9.962;2022-08-02T13:32:29;24.30;69.70
4749;DHT22;2388;53.582;9.962;2022-08-02T13:34:55;24.40;67.80
4749;DHT22;2388;53.582;9.962;2022-08-02T13:37:21;24.60;67.40
4749;DHT22;2388;53.582;9.962;2022-08-02T13:39:47;24.80;68.00
4749;DHT22;2388;53.582;9.962;2022-08-02T13:42:13;24.60;70.50
4749;DHT22;2388;53.582;9.962;2022-08-02T13:44:38;24.30;70.40
4749;DHT22;2388;53.582;9.962;2022-08-02T13:47:04;24.40;72.30
4749;DHT22;2388;53.582;9.962;2022-08-02T13:49:30;24.30;73.10
4749;DHT22;2388;53.582;9.962;2022-08-02T13:51:56;24.10;71.80
4749;DHT22;2388;53.582;9.962;2022-08-02T13:54:21;24.40;73.50
4749;DHT22;2388;53.582;9.962;2022-08-02T13:56:47;24.30;73.50
4749;DHT22;2388;53.582;9.962;2022-08-02T13:59:12;24.50;70.40
4749;DHT22;2388;53.582;9.962;2022-08-02T14:01:38;24.40;72.30
4749;DHT22;2388;53.582;9.962;2022-08-02T14:04:04;24.40;74.10
4749;DHT22;2388;53.582;9.962;2022-08-02T14:06:29;24.10;76.00
4749;DHT22;2388;53.582;9.962;2022-08-02T14:08:54;24.20;75.00
4749;DHT22;2388;53.582;9.962;2022-08-02T14:11:20;24.30;73.50
4749;DHT22;2388;53.582;9.962;2022-08-02T14:13:46;24.20;76.10
4749;DHT22;2388;53.582;9.962;2022-08-02T14:16:11;23.70;78.10
4749;DHT22;2388;53.582;9.962;2022-08-02T14:18:37;23.50;78.70
4749;DHT22;2388;53.582;9.962;2022-08-02T14:21:02;23.80;79.00
4749;DHT22;2388;53.582;9.962;2022-08-02T14:23:28;23.50;80.90
4749;DHT22;2388;53.582;9.962;2022-08-02T14:25:55;23.70;80.90
4749;DHT22;2388;53.582;9.962;2022-08-02T14:28:21;23.80;80.20
4749;DHT22;2388;53.582;9.962;2022-08-02T14:30:46;23.80;81.60
4749;DHT22;2388;53.582;9.962;2022-08-02T14:33:12;23.60;81.60
4749;DHT22;2388;53.582;9.962;2022-08-02T14:35:37;23.40;83.30
4749;DHT22;2388;53.582;9.962;2022-08-02T14:38:03;23.70;82.20
4749;DHT22;2388;53.582;9.962;2022-08-02T14:40:29;23.50;83.30
4749;DHT22;2388;53.582;9.962;2022-08-02T14:42:54;23.60;83.40
4749;DHT22;2388;53.582;9.962;2022-08-02T14:45:20;23.70;83.50
4749;DHT22;2388;53.582;9.962;2022-08-02T14:47:50;23.80;83.90
4749;DHT22;2388;53.582;9.962;2022-08-02T14:50:17;23.60;84.50
4749;DHT22;2388;53.582;9.962;2022-08-02T14:52:44;23.60;84.30
4749;DHT22;2388;53.582;9.962;2022-08-02T14:55:09;23.40;85.30
4749;DHT22;2388;53.582;9.962;2022-08-02T14:57:35;23.60;84.80
4749;DHT22;2388;53.582;9.962;2022-08-02T15:00:00;23.60;86.10
4749;DHT22;2388;53.582;9.962;2022-08-02T15:02:26;23.70;85.60
4749;DHT22;2388;53.582;9.962;2022-08-02T15:04:52;23.80;84.20
4749;DHT22;2388;53.582;9.962;2022-08-02T15:07:18;23.90;83.70
4749;DHT22;2388;53.582;9.962;2022-08-02T15:09:43;23.50;85.50
4749;DHT22;2388;53.582;9.962;2022-08-02T15:12:10;23.60;85.90
4749;DHT22;2388;53.582;9.962;2022-08-02T15:14:36;23.70;85.60
4749;DHT22;2388;53.582;9.962;2022-08-02T15:17:01;23.70;86.00
4749;DHT22;2388;53.582;9.962;2022-08-02T15:19:28;23.80;86.20
4749;DHT22;2388;53.582;9.962;2022-08-02T15:21:54;23.60;86.70
4749;DHT22;2388;53.582;9.962;2022-08-02T15:24:19;23.70;87.90
4749;DHT22;2388;53.582;9.962;2022-08-02T15:26:45;23.50;88.50
4749;DHT22;2388;53.582;9.962;2022-08-02T15:29:10;23.60;89.00
4749;DHT22;2388;53.582;9.962;2022-08-02T15:31:36;23.70;89.10
4749;DHT22;2388;53.582;9.962;2022-08-02T15:34:01;23.70;89.00
4749;DHT22;2388;53.582;9.962;2022-08-02T15:36:27;23.50;90.10
4749;DHT22;2388;53.582;9.962;2022-08-02T15:38:52;23.40;90.40
4749;DHT22;2388;53.582;9.962;2022-08-02T15:41:18;23.30;90.30
4749;DHT22;2388;53.582;9.962;2022-08-02T15:43:43;23.30;90.60
4749;DHT22;2388;53.582;9.962;2022-08-02T15:46:09;23.30;90.70
4749;DHT22;2388;53.582;9.962;2022-08-02T15:48:34;23.20;91.00
4749;DHT22;2388;53.582;9.962;2022-08-02T15:51:00;23.20;91.50
4749;DHT22;2388;53.582;9.962;2022-08-02T15:53:26;23.40;91.40
4749;DHT22;2388;53.582;9.962;2022-08-02T15:55:51;23.60;91.40
4749;DHT22;2388;53.582;9.962;2022-08-02T15:58:18;23.60;91.10
4749;DHT22;2388;53.582;9.962;2022-08-02T16:00:43;23.70;91.20
4749;DHT22;2388;53.582;9.962;2022-08-02T16:03:09;23.70;91.30
4749;DHT22;2388;53.582;9.962;2022-08-02T16:05:34;23.60;91.20
4749;DHT22;2388;53.582;9.962;2022-08-02T16:08:00;23.50;91.50
4749;DHT22;2388;53.582;9.962;2022-08-02T16:10:26;23.40;91.70
4749;DHT22;2388;53.582;9.962;2022-08-02T16:12:52;23.30;91.80
4749;DHT22;2388;53.582;9.962;2022-08-02T16:15:17;23.10;92.10
4749;DHT22;2388;53.582;9.962;2022-08-02T16:17:43;23.10;92.60
4749;DHT22;2388;53.582;9.962;2022-08-02T16:20:09;23.00;92.60
4749;DHT22;2388;53.582;9.962;2022-08-02T16:22:34;23.00;92.70
4749;DHT22;2388;53.582;9.962;2022-08-02T16:25:00;22.80;93.30
4749;DHT22;2388;53.582;9.962;2022-08-02T16:27:26;22.60;93.90
4749;DHT22;2388;53.582;9.962;2022-08-02T16:29:51;22.60;94.80
4749;DHT22;2388;53.582;9.962;2022-08-02T16:32:17;22.80;94.60
4749;DHT22;2388;53.582;9.962;2022-08-02T16:34:42;23.00;94.00
4749;DHT22;2388;53.582;9.962;2022-08-02T16:37:08;22.90;94.10